Time;durP1;ratioP1;P1;durP2;ratioP2;P2;SDS_P1;SDS_P2;PMS_P1;PMS_P2;Temp;Humidity;BMP_temperature;BMP_pressure;BME280_temperature;BME280_humidity;BME280_pressure;Samples;Min_cycle;Max_cycle;Signal;HPM_P1;HPM_P2
2021/07/16 00:01:44;;;;;;;4.18;2.88;;;17.30;94.40;;;;;;5014668;28;20022;-84
2021/07/16 00:04:10;;;;;;;5.07;3.00;;;17.30;94.40;;;;;;5014860;28;20037;-83
2021/07/16 00:06:36;;;;;;;6.03;3.42;;;17.30;94.40;;;;;;5014457;28;20045;-83
2021/07/16 00:09:02;;;;;;;3.33;2.28;;;17.30;94.30;;;;;;5014681;28;20030;-84
2021/07/16 00:11:29;;;;;;;4.72;3.05;;;17.20;94.30;;;;;;5015330;28;20038;-85
2021/07/16 00:13:55;;;;;;;4.35;2.45;;;17.30;94.30;;;;;;5014634;28;20044;-85
2021/07/16 00:16:20;;;;;;;3.95;2.88;;;17.30;94.30;;;;;;5015031;28;20025;-84
2021/07/16 00:18:46;;;;;;;4.53;2.67;;;17.30;94.30;;;;;;5014552;28;20032;-85
2021/07/16 00:21:13;;;;;;;2.75;1.80;;;17.30;94.30;;;;;;5014434;28;20053;-84
2021/07/16 00:23:39;;;;;;;3.53;2.20;;;17.30;94.30;;;;;;5013952;28;20073;-85
2021/07/16 00:26:07;;;;;;;3.78;2.45;;;17.30;94.30;;;;;;5014507;28;20030;-83
2021/07/16 00:28:33;;;;;;;4.45;2.47;;;17.30;94.20;;;;;;5014374;28;20054;-83
2021/07/16 00:30:59;;;;;;;3.03;1.85;;;17.20;94.20;;;;;;5014692;28;20053;-85
2021/07/16 00:33:24;;;;;;;2.53;1.52;;;17.20;94.30;;;;;;5014495;28;20029;-85
2021/07/16 00:35:50;;;;;;;3.38;2.22;;;17.30;94.20;;;;;;5014069;28;20068;-87
2021/07/16 00:38:15;;;;;;;2.97;1.80;;;17.30;94.20;;;;;;5014646;28;20360;-84
2021/07/16 00:40:42;;;;;;;2.65;1.85;;;17.30;94.20;;;;;;5014463;28;20075;-85
2021/07/16 00:43:07;;;;;;;3.35;2.35;;;17.30;94.20;;;;;;5014305;28;20099;-86
2021/07/16 00:45:33;;;;;;;2.47;1.77;;;17.20;94.20;;;;;;5015008;28;20022;-85
2021/07/16 00:48:00;;;;;;;2.58;1.80;;;17.20;94.20;;;;;;5013984;28;20426;-83
2021/07/16 00:50:29;;;;;;;6.72;3.17;;;17.20;94.20;;;;;;5014769;28;20021;-79
2021/07/16 00:52:58;;;;;;;4.25;2.50;;;17.20;94.20;;;;;;5013945;28;20030;-84
2021/07/16 00:55:24;;;;;;;5.50;3.00;;;17.10;94.30;;;;;;5013598;28;20391;-82
2021/07/16 00:57:50;;;;;;;4.70;3.10;;;17.10;94.30;;;;;;5013571;28;20029;-83
2021/07/16 01:00:17;;;;;;;5.03;3.05;;;17.10;94.40;;;;;;5013496;28;20034;-84
2021/07/16 01:02:42;;;;;;;4.38;2.65;;;17.10;94.40;;;;;;5012354;28;20026;-83
2021/07/16 01:05:11;;;;;;;4.88;2.60;;;17.10;94.40;;;;;;5013573;28;20312;-83
2021/07/16 01:07:38;;;;;;;4.35;2.70;;;17.10;94.40;;;;;;5013664;28;20421;-85
2021/07/16 01:10:08;;;;;;;4.05;2.65;;;17.10;94.30;;;;;;5013784;28;20076;-83
2021/07/16 01:12:36;;;;;;;4.22;2.90;;;17.10;94.30;;;;;;5025406;28;20355;-83
2021/07/16 01:15:03;;;;;;;4.40;3.15;;;17.10;94.30;;;;;;5037664;28;20026;-83
2021/07/16 01:17:32;;;;;;;3.50;2.22;;;17.10;94.30;;;;;;5037283;28;20063;-83
2021/07/16 01:20:09;;;;;;;2.92;1.92;;;17.10;94.30;;;;;;5037059;28;20079;-84
2021/07/16 01:22:38;;;;;;;3.38;2.42;;;17.10;94.20;;;;;;5037270;28;20045;-84
2021/07/16 01:25:19;;;;;;;3.50;2.33;;;17.20;94.20;;;;;;5037063;28;20026;-83
2021/07/16 01:27:51;;;;;;;3.22;2.20;;;17.10;94.20;;;;;;5037057;28;20017;-83
2021/07/16 01:30:21;;;;;;;3.08;1.92;;;17.10;94.30;;;;;;5037184;28;20017;-84
2021/07/16 01:32:48;;;;;;;3.55;2.58;;;17.10;94.20;;;;;;5034626;28;20032;-81
2021/07/16 01:35:14;;;;;;;3.80;2.67;;;17.10;94.20;;;;;;5036682;28;20044;-84
2021/07/16 01:37:40;;;;;;;3.85;2.47;;;17.10;94.30;;;;;;5036745;28;20021;-82
2021/07/16 01:40:09;;;;;;;7.10;3.58;;;17.10;94.20;;;;;;5036599;28;20032;-81
2021/07/16 01:42:36;;;;;;;4.78;2.92;;;17.10;94.20;;;;;;5036469;28;20056;-82
2021/07/16 01:45:05;;;;;;;4.88;3.03;;;17.00;94.30;;;;;;5036849;28;20030;-88
2021/07/16 01:47:31;;;;;;;4.63;2.50;;;17.00;94.30;;;;;;5037373;28;20025;-88
2021/07/16 01:49:57;;;;;;;5.10;3.00;;;17.00;94.20;;;;;;5035721;28;20026;-84
2021/07/16 01:52:23;;;;;;;3.85;2.70;;;17.10;94.20;;;;;;5037161;28;20505;-80
2021/07/16 01:54:48;;;;;;;3.83;2.50;;;17.10;94.20;;;;;;5026917;28;20391;-81
2021/07/16 01:57:14;;;;;;;4.22;2.78;;;17.10;94.20;;;;;;5016934;28;20028;-82
2021/07/16 01:59:39;;;;;;;4.32;2.47;;;17.00;94.20;;;;;;5017557;28;20022;-85
2021/07/16 02:02:08;;;;;;;4.25;2.60;;;17.00;94.20;;;;;;5017351;28;20501;-85
2021/07/16 02:04:33;;;;;;;4.32;2.38;;;17.00;94.30;;;;;;5017247;28;20032;-86
2021/07/16 02:07:00;;;;;;;3.83;2.22;;;17.00;94.20;;;;;;5017031;28;20100;-85
2021/07/16 02:09:26;;;;;;;4.05;1.88;;;17.00;94.20;;;;;;5017467;28;20026;-86
2021/07/16 02:11:54;;;;;;;3.50;2.13;;;17.00;94.10;;;;;;5017271;28;20033;-85
2021/07/16 02:14:19;;;;;;;2.65;1.73;;;17.00;94.10;;;;;;5017440;28;20033;-86
2021/07/16 02:16:45;;;;;;;3.10;2.00;;;17.00;94.10;;;;;;5016886;28;20030;-84
2021/07/16 02:19:10;;;;;;;3.10;2.38;;;17.00;94.10;;;;;;5016396;28;20606;-85
2021/07/16 02:21:36;;;;;;;3.55;2.65;;;17.00;94.20;;;;;;5016391;28;20054;-87
2021/07/16 02:24:02;;;;;;;3.95;2.50;;;16.90;94.20;;;;;;5015930;28;20038;-82
2021/07/16 02:26:27;;;;;;;4.35;2.40;;;17.00;94.10;;;;;;5016282;28;20022;-84
2021/07/16 02:28:53;;;;;;;4.97;2.47;;;16.90;94.10;;;;;;5016945;28;20026;-89
2021/07/16 02:31:19;;;;;;;4.78;2.97;;;16.90;94.20;;;;;;5016376;28;20026;-82
2021/07/16 02:33:44;;;;;;;5.18;2.95;;;16.90;94.20;;;;;;5031762;28;20029;-85
2021/07/16 02:36:10;;;;;;;5.43;2.65;;;16.80;94.20;;;;;;5036611;28;20029;-83
2021/07/16 02:38:36;;;;;;;5.13;3.42;;;16.80;94.20;;;;;;5034896;28;20028;-83
2021/07/16 02:41:02;;;;;;;4.25;2.90;;;16.80;94.20;;;;;;5027498;28;20118;-84
2021/07/16 02:43:27;;;;;;;4.10;2.20;;;16.80;94.20;;;;;;5016309;28;20049;-85
2021/07/16 02:45:54;;;;;;;2.85;2.13;;;16.80;94.20;;;;;;5015822;28;20080;-85
2021/07/16 02:48:19;;;;;;;3.83;2.67;;;16.80;94.20;;;;;;5014140;28;20462;-83
2021/07/16 02:50:47;;;;;;;3.70;2.22;;;16.80;94.00;;;;;;5016164;28;20021;-83
2021/07/16 02:53:15;;;;;;;3.45;2.45;;;16.80;94.00;;;;;;5015752;28;20062;-83
2021/07/16 02:55:42;;;;;;;3.45;2.30;;;16.70;94.10;;;;;;5016580;28;20025;-84
2021/07/16 02:58:09;;;;;;;3.65;2.00;;;16.70;94.10;;;;;;5016044;28;20022;-85
2021/07/16 03:00:36;;;;;;;3.30;2.28;;;16.80;94.10;;;;;;5016031;28;20430;-83
2021/07/16 03:03:02;;;;;;;3.05;2.20;;;16.80;94.00;;;;;;5015342;28;20092;-83
2021/07/16 03:05:31;;;;;;;5.60;2.67;;;16.80;94.00;;;;;;5015373;28;20026;-79
2021/07/16 03:07:58;;;;;;;5.93;3.72;;;16.70;94.00;;;;;;5015300;28;20030;-85
2021/07/16 03:10:28;;;;;;;5.30;2.92;;;16.60;94.00;;;;;;5015633;28;20037;-83
2021/07/16 03:12:55;;;;;;;4.97;3.33;;;16.60;94.20;;;;;;5015318;28;20033;-81
2021/07/16 03:15:22;;;;;;;4.28;2.97;;;16.60;94.20;;;;;;5015437;28;20018;-81
2021/07/16 03:17:49;;;;;;;5.03;2.80;;;16.60;94.20;;;;;;5034739;28;20434;-83
2021/07/16 03:20:21;;;;;;;4.80;3.00;;;16.50;94.10;;;;;;5034693;28;20049;-83
2021/07/16 03:22:46;;;;;;;5.93;3.20;;;16.50;94.10;;;;;;5034125;28;20108;-80
2021/07/16 03:25:15;;;;;;;4.82;2.60;;;16.50;94.20;;;;;;5034634;28;20438;-83
2021/07/16 03:27:40;;;;;;;5.03;3.05;;;16.50;94.10;;;;;;5034620;28;20020;-82
2021/07/16 03:30:09;;;;;;;3.95;2.80;;;16.50;94.20;;;;;;5034225;28;20025;-83
2021/07/16 03:32:36;;;;;;;5.50;2.65;;;16.50;94.20;;;;;;5034503;28;20095;-85
2021/07/16 03:35:02;;;;;;;4.90;2.70;;;16.50;94.10;;;;;;5035314;28;20052;-83
2021/07/16 03:37:27;;;;;;;3.50;2.50;;;16.50;94.10;;;;;;5028212;28;20014;-85
2021/07/16 03:39:53;;;;;;;3.55;1.90;;;16.60;94.00;;;;;;5014997;28;20092;-82
2021/07/16 03:42:18;;;;;;;3.33;2.20;;;16.60;94.00;;;;;;5015167;28;20122;-83
2021/07/16 03:44:44;;;;;;;3.55;2.08;;;16.60;93.90;;;;;;5014645;28;20056;-83
2021/07/16 03:47:14;;;;;;;2.75;2.10;;;16.60;93.90;;;;;;5014766;28;20030;-84
2021/07/16 03:49:40;;;;;;;1.63;1.52;;;16.50;93.90;;;;;;5015093;28;20056;-84
2021/07/16 03:52:06;;;;;;;1.50;1.33;;;16.50;94.00;;;;;;5015267;28;20026;-87
2021/07/16 03:54:32;;;;;;;3.40;1.60;;;16.60;93.90;;;;;;5015224;28;20037;-85
2021/07/16 03:56:57;;;;;;;3.58;2.05;;;16.60;93.90;;;;;;5014691;28;20053;-85
2021/07/16 03:59:23;;;;;;;2.13;1.67;;;16.60;93.80;;;;;;5029424;28;20108;-84
2021/07/16 04:01:49;;;;;;;2.33;1.70;;;16.60;93.80;;;;;;5034555;28;20517;-84
2021/07/16 04:04:15;;;;;;;3.05;1.58;;;16.60;93.90;;;;;;5034177;28;20042;-82
2021/07/16 04:06:49;;;;;;;3.55;1.73;;;16.60;93.80;;;;;;5034317;28;20080;-82
2021/07/16 04:09:48;;;;;;;2.05;1.52;;;16.60;93.80;;;;;;5034461;28;20028;-84
2021/07/16 04:12:11;;;;;;;2.40;1.42;;;16.50;93.80;;;;;;5030895;28;20064;-85
2021/07/16 04:14:39;;;;;;;2.50;1.60;;;16.60;93.80;;;;;;5033924;28;20570;-84
2021/07/16 04:17:09;;;;;;;2.03;1.63;;;16.60;93.70;;;;;;5032913;28;20021;-85
2021/07/16 04:19:35;;;;;;;2.22;1.55;;;16.60;93.70;;;;;;5034392;28;20031;-85
2021/07/16 04:22:00;;;;;;;1.88;1.42;;;16.60;93.80;;;;;;5032505;28;20550;-84
2021/07/16 04:24:26;;;;;;;1.60;1.38;;;16.60;93.70;;;;;;5034388;28;20368;-86
2021/07/16 04:26:51;;;;;;;2.28;1.25;;;16.60;93.70;;;;;;5034334;28;20053;-84
2021/07/16 04:29:17;;;;;;;2.00;1.58;;;16.60;93.70;;;;;;5033527;28;20041;-85
2021/07/16 04:31:42;;;;;;;2.33;1.58;;;16.60;93.70;;;;;;5032939;28;20117;-83
2021/07/16 04:34:08;;;;;;;3.45;1.55;;;16.60;93.70;;;;;;5032761;28;20470;-81
2021/07/16 04:36:33;;;;;;;1.88;1.58;;;16.60;93.60;;;;;;5033533;28;20025;-81
2021/07/16 04:38:59;;;;;;;2.60;1.67;;;16.60;93.70;;;;;;4994005;28;20050;-81
2021/07/16 04:41:24;;;;;;;2.40;1.55;;;16.60;93.70;;;;;;4993907;28;20153;-80
2021/07/16 04:43:50;;;;;;;1.65;1.20;;;16.60;93.80;;;;;;4993305;28;20046;-81
2021/07/16 04:46:15;;;;;;;2.40;1.63;;;16.60;93.80;;;;;;4993850;28;20023;-82
2021/07/16 04:48:41;;;;;;;2.67;1.77;;;16.70;93.70;;;;;;4993718;28;20026;-81
2021/07/16 04:51:06;;;;;;;1.90;1.40;;;16.60;93.70;;;;;;4993975;28;20027;-82
2021/07/16 04:53:32;;;;;;;2.55;1.20;;;16.70;93.70;;;;;;4994169;28;20018;-81
2021/07/16 04:55:57;;;;;;;1.83;1.55;;;16.70;93.70;;;;;;4994229;28;20607;-82
2021/07/16 04:58:23;;;;;;;3.05;1.65;;;16.70;93.90;;;;;;4995694;28;20065;-80
2021/07/16 05:00:48;;;;;;;1.42;1.30;;;16.70;93.70;;;;;;5018791;28;20017;-81
2021/07/16 05:03:14;;;;;;;2.33;1.20;;;16.70;93.70;;;;;;5033053;28;20033;-81
2021/07/16 05:05:39;;;;;;;2.72;1.65;;;16.70;93.70;;;;;;5033036;28;20029;-81
2021/07/16 05:08:05;;;;;;;1.65;1.35;;;16.80;93.60;;;;;;5033155;28;20124;-80
2021/07/16 05:10:31;;;;;;;2.67;1.42;;;16.70;93.60;;;;;;5032897;28;20493;-79
2021/07/16 05:12:56;;;;;;;2.53;1.50;;;16.70;93.60;;;;;;5031242;28;20060;-80
2021/07/16 05:15:22;;;;;;;2.38;1.77;;;16.70;93.70;;;;;;5032830;28;20029;-81
2021/07/16 05:17:47;;;;;;;2.53;1.63;;;16.70;93.70;;;;;;5032850;28;20022;-80
2021/07/16 05:20:13;;;;;;;2.28;1.77;;;16.80;93.60;;;;;;5031688;28;20164;-80
2021/07/16 05:22:38;;;;;;;2.08;1.33;;;16.80;93.60;;;;;;5024440;28;20046;-80
2021/07/16 05:25:05;;;;;;;1.98;1.52;;;16.80;93.60;;;;;;5013182;28;20030;-81
2021/07/16 05:27:30;;;;;;;1.75;1.65;;;16.80;93.60;;;;;;5011371;28;20040;-81
2021/07/16 05:29:56;;;;;;;1.40;1.10;;;16.80;93.60;;;;;;5013052;28;20374;-81
2021/07/16 05:32:21;;;;;;;1.23;1.13;;;16.90;93.50;;;;;;5013286;28;20022;-81
2021/07/16 05:34:47;;;;;;;1.65;1.17;;;16.90;93.50;;;;;;5013058;28;20022;-81
2021/07/16 05:37:12;;;;;;;2.67;2.13;;;17.00;93.50;;;;;;5011893;28;20479;-82
2021/07/16 05:39:38;;;;;;;1.77;1.25;;;17.00;93.40;;;;;;5012943;28;20116;-81
2021/07/16 05:42:04;;;;;;;1.60;1.20;;;16.90;93.40;;;;;;5012367;28;20105;-80
2021/07/16 05:44:31;;;;;;;1.95;1.00;;;17.00;93.40;;;;;;5021235;28;20038;-81
2021/07/16 05:46:57;;;;;;;3.22;1.70;;;17.00;93.40;;;;;;5032757;28;20500;-80
2021/07/16 05:49:23;;;;;;;1.85;1.00;;;17.10;93.40;;;;;;5031352;28;20109;-84
2021/07/16 05:51:48;;;;;;;1.60;1.10;;;17.20;93.40;;;;;;5032981;28;20021;-80
2021/07/16 05:54:13;;;;;;;3.00;1.63;;;17.30;93.30;;;;;;5032508;28;20139;-80
2021/07/16 05:56:41;;;;;;;2.65;1.58;;;17.30;93.20;;;;;;5032140;28;20018;-84
2021/07/16 05:59:07;;;;;;;1.67;1.40;;;17.50;93.30;;;;;;5034949;28;20029;-83
2021/07/16 06:01:33;;;;;;;1.83;1.08;;;17.70;93.10;;;;;;5036114;28;20044;-84
2021/07/16 06:03:58;;;;;;;1.35;1.20;;;17.80;93.00;;;;;;5035855;28;20478;-82
2021/07/16 06:06:24;;;;;;;1.23;1.05;;;17.70;93.00;;;;;;5036200;28;20017;-83
2021/07/16 06:08:49;;;;;;;2.13;1.63;;;17.70;93.10;;;;;;5021313;28;20491;-83
2021/07/16 06:11:15;;;;;;;2.67;1.38;;;17.70;93.20;;;;;;5015849;28;20430;-83
2021/07/16 06:13:40;;;;;;;2.75;1.63;;;17.70;93.40;;;;;;5015953;28;20038;-80
2021/07/16 06:16:06;;;;;;;2.83;1.38;;;17.60;93.20;;;;;;5015888;28;20033;-81
2021/07/16 06:18:31;;;;;;;2.83;1.90;;;17.50;93.30;;;;;;5015993;28;20038;-84
2021/07/16 06:20:57;;;;;;;2.72;1.65;;;17.50;93.40;;;;;;5016065;28;20084;-81
2021/07/16 06:23:23;;;;;;;2.95;1.48;;;17.50;93.40;;;;;;5014306;28;20041;-80
2021/07/16 06:25:49;;;;;;;5.45;2.10;;;17.50;93.40;;;;;;5015377;28;20060;-81
2021/07/16 06:28:14;;;;;;;2.58;1.58;;;17.40;93.50;;;;;;5016053;28;20026;-81
2021/07/16 06:30:40;;;;;;;1.98;1.50;;;17.50;93.40;;;;;;5015866;28;20101;-81
2021/07/16 06:33:06;;;;;;;1.40;1.13;;;17.40;93.40;;;;;;5015495;28;20024;-82
2021/07/16 06:35:32;;;;;;;2.30;1.60;;;17.50;93.40;;;;;;5015368;28;20132;-83
2021/07/16 06:37:57;;;;;;;2.60;1.33;;;17.50;93.30;;;;;;5015669;28;20437;-81
2021/07/16 06:40:23;;;;;;;1.23;1.05;;;17.50;93.30;;;;;;5015099;28;20029;-82
2021/07/16 06:42:48;;;;;;;1.63;1.02;;;17.50;93.30;;;;;;5015620;28;20475;-81
2021/07/16 06:45:14;;;;;;;2.22;1.73;;;17.50;93.30;;;;;;5030800;28;20437;-83
2021/07/16 06:47:39;;;;;;;2.47;1.60;;;17.50;93.30;;;;;;5015825;28;20030;-83
2021/07/16 06:50:09;;;;;;;1.65;1.20;;;17.50;93.40;;;;;;5015502;28;20060;-84
2021/07/16 06:52:35;;;;;;;2.85;1.70;;;17.50;93.30;;;;;;5015580;28;20387;-82
2021/07/16 06:55:02;;;;;;;1.75;1.50;;;17.50;93.30;;;;;;5014779;28;20032;-83
2021/07/16 06:57:27;;;;;;;3.00;1.48;;;17.60;93.40;;;;;;5030689;28;20320;-83
2021/07/16 06:59:53;;;;;;;2.95;1.27;;;17.80;93.20;;;;;;5015465;28;20041;-82
2021/07/16 07:02:18;;;;;;;1.48;1.10;;;17.90;93.10;;;;;;5015121;28;20022;-81
2021/07/16 07:04:44;;;;;;;2.35;1.17;;;18.10;93.00;;;;;;5015234;28;20489;-81
2021/07/16 07:07:09;;;;;;;2.03;1.20;;;18.10;92.90;;;;;;5015203;28;20022;-83
2021/07/16 07:09:35;;;;;;;1.70;1.30;;;18.10;92.90;;;;;;5014128;28;20026;-82
2021/07/16 07:12:00;;;;;;;1.50;1.33;;;18.10;93.10;;;;;;5014925;28;20093;-82
2021/07/16 07:14:26;;;;;;;1.95;1.17;;;18.10;93.10;;;;;;5014805;28;20100;-78
2021/07/16 07:16:52;;;;;;;1.75;1.23;;;18.00;93.10;;;;;;5014893;28;20056;-81
2021/07/16 07:19:17;;;;;;;2.20;1.50;;;17.90;93.20;;;;;;5014813;28;20026;-81
2021/07/16 07:21:43;;;;;;;1.75;1.27;;;17.80;93.30;;;;;;5014602;28;20088;-84
2021/07/16 07:24:09;;;;;;;2.20;1.33;;;17.80;93.30;;;;;;5014369;28;20040;-81
2021/07/16 07:26:35;;;;;;;2.40;1.40;;;17.80;93.30;;;;;;5016383;28;20025;-81
2021/07/16 07:29:00;;;;;;;1.17;1.08;;;17.80;93.30;;;;;;5034404;28;20552;-81
2021/07/16 07:31:26;;;;;;;4.45;1.63;;;17.90;93.30;;;;;;5034400;28;20033;-79
2021/07/16 07:33:52;;;;;;;2.65;1.70;;;17.90;93.30;;;;;;5034279;28;20022;-80
2021/07/16 07:36:17;;;;;;;5.95;2.35;;;17.90;93.20;;;;;;5034332;28;20029;-81
2021/07/16 07:38:44;;;;;;;3.22;1.98;;;17.90;93.20;;;;;;5033529;28;20474;-82
2021/07/16 07:41:09;;;;;;;3.78;2.35;;;17.90;93.30;;;;;;5034448;28;20423;-82
2021/07/16 07:43:35;;;;;;;1.80;1.60;;;17.90;93.30;;;;;;5034155;28;20029;-84
2021/07/16 07:46:01;;;;;;;3.67;1.45;;;17.80;93.30;;;;;;5034305;28;20617;-82
2021/07/16 07:48:26;;;;;;;2.38;2.00;;;17.90;93.30;;;;;;5033821;28;20033;-81
2021/07/16 07:50:52;;;;;;;3.38;1.90;;;17.90;93.20;;;;;;5033526;28;20136;-80
2021/07/16 07:53:17;;;;;;;4.40;2.05;;;17.80;93.20;;;;;;5033737;28;20033;-80
2021/07/16 07:55:43;;;;;;;3.38;2.25;;;17.80;93.20;;;;;;5022053;28;20025;-78
2021/07/16 07:58:09;;;;;;;3.40;2.00;;;17.80;93.20;;;;;;5012891;28;20509;-81
2021/07/16 08:00:35;;;;;;;2.58;2.10;;;17.80;93.30;;;;;;5015124;28;20022;-81
2021/07/16 08:03:01;;;;;;;3.63;1.95;;;17.90;93.20;;;;;;5014070;28;20042;-78
2021/07/16 08:05:26;;;;;;;3.15;2.13;;;18.00;93.10;;;;;;5013729;28;20098;-80
2021/07/16 08:07:52;;;;;;;1.90;1.60;;;18.20;93.00;;;;;;5013896;28;20018;-81
2021/07/16 08:10:20;;;;;;;1.40;1.30;;;18.30;92.90;;;;;;5013967;28;20033;-80
2021/07/16 08:12:46;;;;;;;2.33;1.80;;;18.40;92.90;;;;;;5013932;28;20022;-80
2021/07/16 08:15:14;;;;;;;2.13;1.77;;;18.40;92.80;;;;;;5013810;28;20030;-78
2021/07/16 08:17:40;;;;;;;2.40;1.80;;;18.30;92.90;;;;;;5013761;28;20025;-77
2021/07/16 08:20:10;;;;;;;5.63;2.05;;;18.20;93.00;;;;;;5011734;28;20373;-78
2021/07/16 08:22:38;;;;;;;3.28;2.17;;;18.20;93.10;;;;;;5013269;28;20099;-82
2021/07/16 08:25:04;;;;;;;2.85;1.88;;;18.30;93.10;;;;;;5013813;28;20029;-81
2021/07/16 08:27:29;;;;;;;2.03;1.70;;;18.30;93.00;;;;;;5013832;28;20018;-82
2021/07/16 08:29:55;;;;;;;2.75;1.40;;;18.30;93.00;;;;;;5013729;28;20387;-80
2021/07/16 08:32:21;;;;;;;2.22;2.03;;;18.40;93.00;;;;;;5028767;28;20113;-81
2021/07/16 08:34:46;;;;;;;1.13;1.02;;;18.60;92.90;;;;;;5012847;28;20080;-81
2021/07/16 08:37:11;;;;;;;1.20;1.10;;;18.80;92.80;;;;;;5013589;28;20483;-81
2021/07/16 08:39:37;;;;;;;3.45;2.10;;;18.90;92.70;;;;;;5013453;28;20029;-82
2021/07/16 08:42:03;;;;;;;2.92;2.13;;;19.10;92.50;;;;;;5013590;28;20038;-79
2021/07/16 08:44:30;;;;;;;2.60;1.70;;;19.10;92.50;;;;;;5013064;28;20040;-81
2021/07/16 08:46:56;;;;;;;3.58;2.10;;;19.30;92.50;;;;;;5013506;28;20018;-82
2021/07/16 08:49:24;;;;;;;2.95;2.10;;;19.40;92.40;;;;;;5013018;28;20049;-85
2021/07/16 08:51:50;;;;;;;2.72;1.58;;;19.60;92.30;;;;;;5028888;28;20110;-80
2021/07/16 08:54:17;;;;;;;2.22;1.75;;;19.70;92.60;;;;;;5032947;28;20439;-77
2021/07/16 08:56:43;;;;;;;5.50;2.28;;;19.80;92.10;;;;;;5032846;28;20116;-78
2021/07/16 08:59:09;;;;;;;4.20;2.33;;;19.70;92.40;;;;;;5031858;28;20108;-75
2021/07/16 09:01:43;;;;;;;4.85;2.33;;;19.80;92.40;;;;;;5033068;28;20033;-77
2021/07/16 09:04:09;;;;;;;3.95;2.42;;;19.90;92.20;;;;;;5032499;28;20417;-79
2021/07/16 09:06:44;;;;;;;2.75;2.00;;;19.90;92.30;;;;;;5033053;28;20382;-79
2021/07/16 09:09:10;;;;;;;2.85;1.83;;;20.00;92.30;;;;;;5032772;28;20033;-77
2021/07/16 09:11:40;;;;;;;3.58;2.60;;;20.20;92.30;;;;;;5033100;28;20425;-78
2021/07/16 09:14:06;;;;;;;4.03;2.30;;;20.20;92.10;;;;;;5033503;28;20025;-79
2021/07/16 09:16:32;;;;;;;4.10;3.38;;;20.30;92.10;;;;;;5032902;28;20032;-76
2021/07/16 09:18:58;;;;;;;4.88;2.90;;;20.20;92.00;;;;;;5032300;28;20029;-79
2021/07/16 09:21:24;;;;;;;3.05;2.30;;;20.10;92.10;;;;;;5019911;28;20030;-81
2021/07/16 09:23:49;;;;;;;3.50;2.22;;;20.00;92.30;;;;;;5018870;28;20049;-78
2021/07/16 09:26:23;;;;;;;2.63;1.95;;;20.00;92.30;;;;;;5032776;28;20031;-79
2021/07/16 09:28:50;;;;;;;3.22;1.83;;;19.90;92.30;;;;;;5018460;28;20061;-81
2021/07/16 09:31:23;;;;;;;3.85;2.33;;;19.70;92.30;;;;;;5013056;28;20057;-79
2021/07/16 09:33:56;;;;;;;2.45;2.17;;;19.50;92.50;;;;;;5016413;28;20030;-83
2021/07/16 09:36:30;;;;;;;2.03;1.83;;;19.30;92.60;;;;;;5016755;28;20036;-82
2021/07/16 09:39:18;;;;;;;4.15;2.17;;;19.20;92.70;;;;;;5016534;28;20030;-85
2021/07/16 09:41:53;;;;;;;2.60;1.77;;;19.10;92.70;;;;;;5016572;28;20453;-82
2021/07/16 09:44:28;;;;;;;4.50;2.60;;;19.00;92.80;;;;;;5016560;28;20120;-82
2021/07/16 09:47:07;;;;;;;2.80;2.17;;;19.00;92.70;;;;;;5016291;28;20426;-79
2021/07/16 09:49:32;;;;;;;2.50;1.60;;;19.00;92.60;;;;;;5016592;28;20054;-82
2021/07/16 09:52:07;;;;;;;1.73;1.40;;;18.90;92.70;;;;;;5016454;28;20056;-81
2021/07/16 09:54:32;;;;;;;3.83;1.67;;;18.90;92.70;;;;;;5016691;28;20022;-81
2021/07/16 09:56:58;;;;;;;1.70;1.55;;;18.80;92.70;;;;;;5016449;28;20371;-81
2021/07/16 09:59:28;;;;;;;1.73;1.50;;;18.80;92.70;;;;;;5034602;28;20363;-82
2021/07/16 10:01:54;;;;;;;2.97;1.70;;;18.90;92.70;;;;;;5033754;28;20478;-80
2021/07/16 10:04:20;;;;;;;2.20;1.65;;;18.90;92.60;;;;;;5036013;28;20030;-80
2021/07/16 10:06:53;;;;;;;2.35;1.45;;;18.90;92.50;;;;;;5036118;28;20083;-81
2021/07/16 10:09:21;;;;;;;2.03;1.40;;;18.80;92.50;;;;;;5036070;28;20474;-81
2021/07/16 10:11:52;;;;;;;4.88;2.22;;;18.80;92.60;;;;;;5035802;28;20021;-81
2021/07/16 10:14:18;;;;;;;2.28;1.45;;;18.80;92.60;;;;;;5035915;28;20022;-79
2021/07/16 10:16:49;;;;;;;1.75;1.40;;;18.80;92.60;;;;;;5035376;28;20401;-79
2021/07/16 10:19:16;;;;;;;2.45;1.60;;;18.80;92.70;;;;;;5035660;28;20025;-77
2021/07/16 10:21:43;;;;;;;3.58;1.70;;;18.80;92.50;;;;;;5034040;28;20029;-80
2021/07/16 10:24:10;;;;;;;3.20;2.90;;;18.70;92.40;;;;;;5035603;28;20494;-81
2021/07/16 10:26:36;;;;;;;2.30;1.88;;;18.60;92.60;;;;;;5035562;28;20521;-81
2021/07/16 10:29:02;;;;;;;3.00;2.20;;;18.50;92.70;;;;;;5035601;28;20021;-82
2021/07/16 10:31:34;;;;;;;2.10;1.65;;;18.60;92.70;;;;;;5035075;28;20359;-83
2021/07/16 10:34:26;;;;;;;3.35;1.80;;;18.60;92.70;;;;;;5035476;28;20423;-83
2021/07/16 10:37:02;;;;;;;2.00;1.63;;;18.60;92.60;;;;;;5023302;28;20115;-85
2021/07/16 10:39:46;;;;;;;3.38;1.92;;;18.50;92.60;;;;;;5035716;28;20049;-85
2021/07/16 10:42:27;;;;;;;2.95;2.10;;;18.50;92.80;;;;;;5035344;28;20370;-83
2021/07/16 10:45:00;;;;;;;1.85;1.58;;;18.50;92.70;;;;;;5034109;28;20064;-82
2021/07/16 10:47:47;;;;;;;2.55;2.00;;;18.50;92.60;;;;;;5035262;28;20109;-81
2021/07/16 10:50:36;;;;;;;2.28;1.73;;;18.60;92.60;;;;;;5033369;28;20028;-80
2021/07/16 10:53:02;;;;;;;;;;;18.70;92.50;;;;;;5035474;28;20030;-80
2021/07/16 10:55:36;;;;;;;2.65;1.65;;;18.80;92.60;;;;;;5035113;28;19911;-83
2021/07/16 10:58:43;;;;;;;5.65;2.80;;;18.90;92.40;;;;;;5035093;28;20021;-79
2021/07/16 11:01:09;;;;;;;4.50;2.20;;;19.00;92.10;;;;;;5035152;28;20025;-86
2021/07/16 11:03:44;;;;;;;4.18;2.53;;;18.90;92.40;;;;;;5034846;28;20549;-82
2021/07/16 11:06:11;;;;;;;4.93;3.00;;;18.90;92.40;;;;;;5035047;28;20068;-86
2021/07/16 11:08:37;;;;;;;3.13;2.33;;;18.90;92.40;;;;;;5034948;28;20048;-83
2021/07/16 11:11:04;;;;;;;3.25;2.63;;;19.00;92.40;;;;;;5034826;28;20061;-82
2021/07/16 11:13:36;;;;;;;4.13;2.28;;;19.00;92.30;;;;;;5034818;28;20029;-83
2021/07/16 11:16:32;;;;;;;3.03;1.80;;;19.20;92.30;;;;;;5034170;28;20022;-80
2021/07/16 11:19:03;;;;;;;6.40;1.95;;;19.40;92.20;;;;;;5034636;28;20028;-81
2021/07/16 11:21:45;;;;;;;2.45;1.75;;;19.50;92.10;;;;;;5032452;28;20029;-78
2021/07/16 11:24:19;;;;;;;1.60;1.35;;;19.80;91.90;;;;;;5034660;28;20079;-81
2021/07/16 11:26:58;;;;;;;2.28;1.60;;;19.90;91.70;;;;;;5034772;28;20091;-82
2021/07/16 11:29:26;;;;;;;2.47;1.93;;;20.00;91.70;;;;;;5034061;28;20494;-82
2021/07/16 11:32:22;;;;;;;2.72;1.80;;;19.90;91.80;;;;;;5034410;28;20079;-82
2021/07/16 11:34:58;;;;;;;2.78;1.90;;;19.90;91.90;;;;;;5034703;28;20479;-83
2021/07/16 11:37:33;;;;;;;2.45;2.05;;;19.90;91.80;;;;;;5034646;28;20222;-84
2021/07/16 11:40:02;;;;;;;2.30;1.88;;;19.70;91.90;;;;;;5034438;28;20017;-82
2021/07/16 11:42:28;;;;;;;2.60;1.88;;;19.70;92.10;;;;;;5034181;28;20159;-84
2021/07/16 11:44:54;;;;;;;2.47;1.75;;;19.90;92.10;;;;;;5033832;28;20029;-85
2021/07/16 11:47:22;;;;;;;1.80;1.70;;;20.10;91.70;;;;;;5032824;28;20053;-81
2021/07/16 11:49:52;;;;;;;5.15;2.40;;;20.30;91.60;;;;;;5025408;28;20353;-80
2021/07/16 11:52:25;;;;;;;3.08;2.10;;;20.30;91.50;;;;;;4995551;28;20022;-83
2021/07/16 11:54:52;;;;;;;3.17;2.25;;;20.20;91.50;;;;;;5011800;28;20506;-83
2021/07/16 11:57:21;;;;;;;3.28;2.58;;;20.10;91.70;;;;;;5011690;28;20022;-81
2021/07/16 11:59:49;;;;;;;2.15;1.90;;;20.40;91.80;;;;;;5011746;28;20030;-84
2021/07/16 12:02:20;;;;;;;2.70;1.77;;;20.80;91.30;;;;;;5011284;28;20022;-81
2021/07/16 12:04:48;;;;;;;2.65;1.85;;;21.00;91.30;;;;;;5019296;28;20041;-82
2021/07/16 12:07:15;;;;;;;1.95;1.55;;;21.00;91.40;;;;;;5011638;28;20026;-84
2021/07/16 12:09:44;;;;;;;1.90;1.75;;;21.10;91.10;;;;;;5012040;28;20048;-83
2021/07/16 12:12:12;;;;;;;2.47;1.58;;;21.00;91.10;;;;;;5011350;28;20026;-81
2021/07/16 12:14:51;;;;;;;1.75;1.58;;;20.90;91.30;;;;;;5010907;28;20041;-81
2021/07/16 12:17:24;;;;;;;;;;;20.80;91.40;;;;;;5010253;28;20025;-81
2021/07/16 12:19:51;;;;;;;1.80;1.38;;;20.70;91.50;;;;;;5009756;28;19955;-80
2021/07/16 12:22:21;;;;;;;1.58;1.48;;;20.50;91.60;;;;;;5011072;28;20046;-83
2021/07/16 12:24:47;;;;;;;1.30;1.20;;;20.50;91.70;;;;;;5011991;28;20047;-82
2021/07/16 12:27:14;;;;;;;1.35;1.20;;;20.40;91.70;;;;;;5010520;28;20045;-82
2021/07/16 12:29:40;;;;;;;1.20;1.10;;;20.30;91.70;;;;;;5010740;28;20088;-81
2021/07/16 12:32:09;;;;;;;1.70;1.45;;;20.40;91.60;;;;;;5010991;28;20064;-81
2021/07/16 12:34:41;;;;;;;1.40;1.30;;;20.60;91.50;;;;;;5010766;28;20030;-80
2021/07/16 12:37:15;;;;;;;1.35;1.23;;;20.70;91.50;;;;;;5008874;28;20029;-83
2021/07/16 12:39:45;;;;;;;3.22;1.60;;;20.80;91.40;;;;;;5007378;28;20374;-79
2021/07/16 12:42:20;;;;;;;3.95;2.47;;;20.90;91.20;;;;;;5010887;28;20026;-82
2021/07/16 12:45:10;;;;;;;2.35;1.70;;;20.90;91.10;;;;;;5019695;28;20057;-81
2021/07/16 12:47:52;;;;;;;4.30;2.75;;;20.80;91.30;;;;;;5012812;28;20076;-82
2021/07/16 12:50:22;;;;;;;1.77;1.60;;;20.70;91.20;;;;;;5013299;28;20054;-81
2021/07/16 12:52:56;;;;;;;1.85;1.55;;;20.80;91.40;;;;;;5013369;28;20421;-82